Time,TemperatureF,DewpointF,PressureIn,WindDirection,WindDirectionDegrees,WindSpeedMPH,WindSpeedGustMPH,Humidity,HourlyPrecipIn,Conditions,Clouds,dailyrainin,SoftwareType,DateUTC
2013-09-16 00:02:00,76.9,75.0,30.02,SE,131,1.0,3.0,94,0.00,,,0.40,weatherlink.com 1.10,2013-09-16 04:02:00,
2013-09-16 00:17:00,76.9,75.0,30.03,SE,131,0.0,0.0,94,0.00,,,0.00,weatherlink.com 1.10,2013-09-16 04:17:00,
2013-09-16 00:32:00,76.9,75.0,30.02,SE,129,3.0,6.0,94,0.00,,,0.00,weatherlink.com 1.10,2013-09-16 04:32:00,
2013-09-16 00:47:00,76.9,75.0,30.02,SE,129,0.0,2.0,94,0.00,,,0.00,weatherlink.com 1.10,2013-09-16 04:47:00,
2013-09-16 01:02:00,76.8,75.0,30.02,SE,129,0.0,3.0,94,0.00,,,0.00,weatherlink.com 1.10,2013-09-16 05:02:00,
2013-09-16 01:17:00,76.7,75.0,30.02,ESE,114,5.0,6.0,94,0.00,,,0.00,weatherlink.com 1.10,2013-09-16 05:17:00,
2013-09-16 01:32:00,76.8,75.0,30.02,NE,40,7.0,8.0,94,0.00,,,0.00,weatherlink.com 1.10,2013-09-16 05:32:00,
2013-09-16 01:48:00,76.8,75.0,30.02,NE,43,8.0,8.0,94,0.00,,,0.00,weatherlink.com 1.10,2013-09-16 05:48:00,
2013-09-16 02:03:00,76.8,75.0,30.02,NNE,28,7.0,8.0,94,0.00,,,0.00,weatherlink.com 1.10,2013-09-16 06:03:00,
2013-09-16 02:18:00,76.7,75.0,30.02,NE,37,9.0,10.0,94,0.00,,,0.00,weatherlink.com 1.10,2013-09-16 06:18:00,
2013-09-16 02:33:00,76.6,75.0,30.02,NE,47,7.0,10.0,94,0.00,,,0.00,weatherlink.com 1.10,2013-09-16 06:33:00,
2013-09-16 02:48:00,76.4,75.0,30.00,NE,48,6.0,9.0,94,0.00,,,0.00,weatherlink.com 1.10,2013-09-16 06:48:00,
2013-09-16 03:03:00,76.2,74.0,30.00,NE,37,7.0,10.0,94,0.00,,,0.00,weatherlink.com 1.10,2013-09-16 07:03:00,
2013-09-16 03:18:00,76.1,74.0,30.00,NE,51,7.0,11.0,94,0.00,,,0.00,weatherlink.com 1.10,2013-09-16 07:18:00,
2013-09-16 03:33:00,76.1,74.0,30.00,NE,52,5.0,9.0,94,0.00,,,0.00,weatherlink.com 1.10,2013-09-16 07:33:00,
2013-09-16 03:48:00,76.1,74.0,30.00,NE,52,5.0,11.0,94,0.00,,,0.00,weatherlink.com 1.10,2013-09-16 07:48:00,
2013-09-16 04:03:00,76.2,74.0,30.00,NE,52,5.0,9.0,94,0.00,,,0.00,weatherlink.com 1.10,2013-09-16 08:03:00,
2013-09-16 04:18:00,76.3,75.0,30.00,NE,52,5.0,8.0,94,0.00,,,0.00,weatherlink.com 1.10,2013-09-16 08:18:00,
2013-09-16 04:33:00,76.3,75.0,30.00,NE,52,5.0,9.0,94,0.00,,,0.00,weatherlink.com 1.10,2013-09-16 08:33:00,
2013-09-16 04:48:00,76.3,75.0,29.99,NE,52,4.0,7.0,94,0.00,,,0.00,weatherlink.com 1.10,2013-09-16 08:48:00,
2013-09-16 05:03:00,76.2,74.0,29.99,NE,52,5.0,7.0,94,0.00,,,0.00,weatherlink.com 1.10,2013-09-16 09:03:00,
2013-09-16 05:18:00,76.1,74.0,29.99,NE,52,4.0,8.0,94,0.00,,,0.00,weatherlink.com 1.10,2013-09-16 09:18:00,
2013-09-16 05:33:00,76.0,74.0,29.99,NE,50,6.0,9.0,94,0.00,,,0.00,weatherlink.com 1.10,2013-09-16 09:33:00,
2013-09-16 05:48:00,75.9,74.0,29.99,NE,49,3.0,8.0,95,0.00,,,0.00,weatherlink.com 1.10,2013-09-16 09:48:00,
2013-09-16 06:03:00,75.9,74.0,29.99,NE,49,6.0,8.0,95,0.00,,,0.00,weatherlink.com 1.10,2013-09-16 10:03:00,
2013-09-16 06:18:00,75.9,74.0,30.00,NE,49,6.0,8.0,95,0.00,,,0.00,weatherlink.com 1.10,2013-09-16 10:18:00,
2013-09-16 06:33:00,75.8,74.0,29.99,NE,47,4.0,9.0,95,0.00,,,0.00,weatherlink.com 1.10,2013-09-16 10:33:00,
2013-09-16 06:48:00,75.9,74.0,29.99,NE,41,5.0,9.0,95,0.00,,,0.00,weatherlink.com 1.10,2013-09-16 10:48:00,
2013-09-16 07:03:00,76.0,75.0,30.00,NE,41,6.0,9.0,95,0.00,,,0.00,weatherlink.com 1.10,2013-09-16 11:03:00,
2013-09-16 07:18:00,76.1,75.0,30.00,NNE,32,7.0,8.0,95,0.00,,,0.00,weatherlink.com 1.10,2013-09-16 11:18:00,
2013-09-16 07:33:00,76.3,75.0,30.01,NNE,29,4.0,9.0,95,0.00,,,0.00,weatherlink.com 1.10,2013-09-16 11:33:00,
2013-09-16 07:48:00,76.4,75.0,30.01,NE,52,5.0,10.0,95,0.00,,,0.00,weatherlink.com 1.10,2013-09-16 11:48:00,
2013-09-16 08:03:00,76.7,75.0,30.02,ENE,58,7.0,8.0,95,0.00,,,0.00,weatherlink.com 1.10,2013-09-16 12:03:00,
2013-09-16 08:18:00,76.9,75.0,30.02,NE,56,9.0,10.0,95,0.00,,,0.00,weatherlink.com 1.10,2013-09-16 12:18:00,
2013-09-16 08:33:00,77.1,76.0,30.02,NE,52,7.0,9.0,95,0.00,,,0.00,weatherlink.com 1.10,2013-09-16 12:33:00,
2013-09-16 08:48:00,77.4,76.0,30.02,NE,52,5.0,8.0,95,0.00,,,0.00,weatherlink.com 1.10,2013-09-16 12:48:00,
2013-09-16 09:03:00,77.9,76.0,30.02,NE,52,1.0,9.0,95,0.00,,,0.00,weatherlink.com 1.10,2013-09-16 13:03:00,
2013-09-16 09:18:00,79.1,78.0,30.02,NE,55,3.0,9.0,95,0.00,,,0.00,weatherlink.com 1.10,2013-09-16 13:18:00,
2013-09-16 09:33:00,80.0,79.0,30.02,ENE,58,7.0,11.0,95,0.00,,,0.00,weatherlink.com 1.10,2013-09-16 13:33:00,
2013-09-16 09:48:00,80.8,79.0,30.02,East,82,6.0,14.0,94,0.00,,,0.00,weatherlink.com 1.10,2013-09-16 13:48:00,
2013-09-16 10:03:00,81.7,80.0,30.03,NE,51,7.0,14.0,93,0.00,,,0.00,weatherlink.com 1.10,2013-09-16 14:03:00,
2013-09-16 10:18:00,82.7,80.0,30.03,ENE,66,11.0,13.0,92,0.00,,,0.00,weatherlink.com 1.10,2013-09-16 14:18:00,
2013-09-16 10:33:00,83.2,80.0,30.03,NE,56,10.0,18.0,91,0.00,,,0.00,weatherlink.com 1.10,2013-09-16 14:33:00,
2013-09-16 10:48:00,83.7,80.0,30.03,NE,42,10.0,17.0,89,0.00,,,0.00,weatherlink.com 1.10,2013-09-16 14:48:00,
2013-09-16 11:03:00,84.1,80.0,30.04,ENE,64,15.0,17.0,87,0.00,,,0.00,weatherlink.com 1.10,2013-09-16 15:03:00,
2013-09-16 11:18:00,85.6,81.0,30.04,ENE,64,6.0,14.0,86,0.00,,,0.00,weatherlink.com 1.10,2013-09-16 15:18:00,
2013-09-16 11:34:00,86.8,81.0,30.03,NE,56,6.0,17.0,83,0.00,,,0.00,weatherlink.com 1.10,2013-09-16 15:34:00,
2013-09-16 11:49:00,87.0,81.0,30.02,NNE,33,2.0,12.0,81,0.00,,,0.00,weatherlink.com 1.10,2013-09-16 15:49:00,
2013-09-16 12:04:00,88.2,80.0,30.02,NE,53,7.0,15.0,77,0.00,,,0.00,weatherlink.com 1.10,2013-09-16 16:04:00,
2013-09-16 12:19:00,87.9,79.0,30.03,ENE,61,6.0,18.0,75,0.00,,,0.00,weatherlink.com 1.10,2013-09-16 16:19:00,
2013-09-16 12:34:00,86.5,79.0,30.03,East,87,6.0,17.0,77,0.00,,,0.00,weatherlink.com 1.10,2013-09-16 16:34:00,
2013-09-16 12:49:00,84.4,78.0,30.02,ESE,110,2.0,13.0,80,0.22,,,0.22,weatherlink.com 1.10,2013-09-16 16:49:00,
2013-09-16 13:04:00,83.8,78.0,30.01,ESE,103,8.0,16.0,83,0.22,,,0.22,weatherlink.com 1.10,2013-09-16 17:04:00,
2013-09-16 13:19:00,84.1,78.0,30.00,ESE,122,11.0,19.0,81,0.22,,,0.22,weatherlink.com 1.10,2013-09-16 17:19:00,
2013-09-16 13:34:00,85.0,78.0,30.00,ESE,122,4.0,16.0,80,0.21,,,0.22,weatherlink.com 1.10,2013-09-16 17:34:00,
2013-09-16 13:49:00,85.0,78.0,30.02,ENE,58,9.0,15.0,80,0.00,,,0.22,weatherlink.com 1.10,2013-09-16 17:49:00,
2013-09-16 14:04:00,85.0,79.0,30.02,ENE,62,14.0,15.0,81,0.00,,,0.22,weatherlink.com 1.10,2013-09-16 18:04:00,
2013-09-16 14:19:00,84.8,78.0,30.01,NE,52,6.0,11.0,81,0.00,,,0.22,weatherlink.com 1.10,2013-09-16 18:19:00,
2013-09-16 14:34:00,85.1,78.0,30.01,NE,41,4.0,10.0,80,0.00,,,0.22,weatherlink.com 1.10,2013-09-16 18:34:00,
2013-09-16 14:49:00,85.2,78.0,30.01,NE,49,2.0,10.0,80,0.00,,,0.22,weatherlink.com 1.10,2013-09-16 18:49:00,
2013-09-16 15:04:00,85.3,79.0,30.00,NNE,17,6.0,10.0,81,0.00,,,0.22,weatherlink.com 1.10,2013-09-16 19:04:00,
2013-09-16 15:19:00,86.3,79.0,30.00,NNE,14,7.0,10.0,79,0.00,,,0.22,weatherlink.com 1.10,2013-09-16 19:19:00,
2013-09-16 15:34:00,85.4,78.0,29.99,NNE,25,7.0,20.0,78,0.00,,,0.22,weatherlink.com 1.10,2013-09-16 19:34:00,
2013-09-16 15:49:00,83.5,78.0,29.99,NNE,21,8.0,15.0,82,0.04,,,0.26,weatherlink.com 1.10,2013-09-16 19:49:00,
2013-09-16 16:04:00,82.1,77.0,29.98,NNE,29,4.0,12.0,85,0.04,,,0.26,weatherlink.com 1.10,2013-09-16 20:04:00,
2013-09-16 16:19:00,81.5,77.0,29.97,NNE,24,7.0,10.0,87,0.04,,,0.26,weatherlink.com 1.10,2013-09-16 20:19:00,
2013-09-16 16:34:00,81.2,77.0,29.97,NNE,30,7.0,9.0,87,0.04,,,0.26,weatherlink.com 1.10,2013-09-16 20:34:00,
2013-09-16 16:49:00,81.4,77.0,29.96,NE,37,6.0,9.0,87,0.00,,,0.26,weatherlink.com 1.10,2013-09-16 20:49:00,
2013-09-16 17:04:00,81.2,77.0,29.96,ENE,58,9.0,14.0,87,0.00,,,0.26,weatherlink.com 1.10,2013-09-16 21:04:00,
2013-09-16 17:19:00,81.3,78.0,29.95,NE,41,9.0,12.0,88,0.00,,,0.26,weatherlink.com 1.10,2013-09-16 21:19:00,
2013-09-16 17:34:00,81.0,77.0,29.96,NE,46,7.0,11.0,88,0.00,,,0.26,weatherlink.com 1.10,2013-09-16 21:34:00,
2013-09-16 17:49:00,80.9,77.0,29.95,NE,54,9.0,12.0,88,0.00,,,0.26,weatherlink.com 1.10,2013-09-16 21:49:00,
2013-09-16 18:04:00,80.8,77.0,29.95,NE,46,3.0,10.0,88,0.00,,,0.26,weatherlink.com 1.10,2013-09-16 22:04:00,
2013-09-16 18:19:00,80.9,77.0,29.96,NE,47,8.0,8.0,88,0.00,,,0.26,weatherlink.com 1.10,2013-09-16 22:19:00,
2013-09-16 18:34:00,80.6,77.0,29.96,NE,51,8.0,9.0,88,0.00,,,0.26,weatherlink.com 1.10,2013-09-16 22:34:00,
2013-09-16 18:49:00,80.4,77.0,29.97,NE,41,6.0,8.0,88,0.00,,,0.26,weatherlink.com 1.10,2013-09-16 22:49:00,
2013-09-16 19:04:00,80.1,76.0,29.98,NE,36,5.0,9.0,88,0.00,,,0.26,weatherlink.com 1.10,2013-09-16 23:04:00,
2013-09-16 19:19:00,79.6,76.0,29.98,NE,46,6.0,10.0,88,0.00,,,0.26,weatherlink.com 1.10,2013-09-16 23:19:00,
2013-09-16 19:34:00,79.2,75.0,29.98,NE,49,6.0,9.0,88,0.00,,,0.26,weatherlink.com 1.10,2013-09-16 23:34:00,
2013-09-16 19:49:00,78.8,75.0,29.99,NE,49,6.0,6.0,89,0.00,,,0.26,weatherlink.com 1.10,2013-09-16 23:49:00,
2013-09-16 20:04:00,78.6,75.0,29.99,NE,49,3.0,6.0,89,0.00,,,0.26,weatherlink.com 1.10,2013-09-17 00:04:00,
2013-09-16 20:19:00,78.5,75.0,30.00,NE,49,3.0,5.0,90,0.00,,,0.26,weatherlink.com 1.10,2013-09-17 00:19:00,
2013-09-16 20:34:00,78.4,75.0,30.00,NE,49,3.0,6.0,90,0.00,,,0.26,weatherlink.com 1.10,2013-09-17 00:34:00,
2013-09-16 20:49:00,78.3,75.0,30.00,NE,49,4.0,5.0,90,0.00,,,0.26,weatherlink.com 1.10,2013-09-17 00:49:00,
2013-09-16 21:04:00,78.1,75.0,30.00,NE,49,5.0,6.0,90,0.00,,,0.26,weatherlink.com 1.10,2013-09-17 01:04:00,
2013-09-16 21:19:00,78.0,75.0,30.00,NE,49,5.0,7.0,90,0.00,,,0.26,weatherlink.com 1.10,2013-09-17 01:19:00,
2013-09-16 21:34:00,77.8,75.0,30.00,NE,49,4.0,7.0,90,0.00,,,0.26,weatherlink.com 1.10,2013-09-17 01:34:00,
2013-09-16 21:49:00,77.5,75.0,30.00,NE,49,5.0,8.0,91,0.00,,,0.26,weatherlink.com 1.10,2013-09-17 01:49:00,
2013-09-16 22:04:00,77.4,75.0,30.00,NE,44,5.0,7.0,91,0.00,,,0.26,weatherlink.com 1.10,2013-09-17 02:04:00,
2013-09-16 22:19:00,77.2,75.0,30.00,NE,46,5.0,9.0,91,0.00,,,0.26,weatherlink.com 1.10,2013-09-17 02:19:00,
2013-09-16 22:34:00,77.1,75.0,30.00,NE,51,7.0,10.0,92,0.00,,,0.26,weatherlink.com 1.10,2013-09-17 02:34:00,
2013-09-16 22:49:00,77.1,75.0,30.00,ENE,57,8.0,10.0,92,0.00,,,0.26,weatherlink.com 1.10,2013-09-17 02:49:00,
2013-09-16 23:04:00,77.0,75.0,30.00,NE,55,6.0,10.0,92,0.00,,,0.26,weatherlink.com 1.10,2013-09-17 03:04:00,
2013-09-16 23:19:00,76.9,75.0,30.00,NE,44,6.0,10.0,93,0.00,,,0.26,weatherlink.com 1.10,2013-09-17 03:19:00,
2013-09-16 23:34:00,76.8,75.0,30.00,NE,54,5.0,10.0,93,0.00,,,0.26,weatherlink.com 1.10,2013-09-17 03:34:00,
2013-09-16 23:49:00,76.6,75.0,30.01,NE,50,5.0,8.0,93,0.00,,,0.26,weatherlink.com 1.10,2013-09-17 03:49:00,